Madeleine — VCRG — position and weather

sailwx.info

Track history (hours):
 
Tides and Currents Weather Stations Pressure Air Temp Water Temp Dewpoint Dewpoint Depression Visibility Wind Speed Wind Dir Waves Ship Positions

Madeleine

Last reported at 2018-Apr-25 02:00 UTC. Time now 2018-Apr-25 02:59 UTC.
Position N 49°00' W 066°54'.

Length 123 m; draft 4.8 m.

Type: Ship. MMSI: 316003239.

Wind from 120 at 2 knots

Barometer 1017.5 mb
Air temperature 6.8 ° C
Dewpoint 5.9 ° C

Date/timePositionNaut miles runAvg speedWind from/ knotsBaromVisibWave heightAir tempDewpointWater temp
2018-Apr-25 02:00N 49°00' W 066°54'0 0.0 120 / 21017.5 6.8 5.9
2018-Apr-25 01:00N 49°00' W 066°54'0 0.0 060 / 21017.8 6.3 5.7
2018-Apr-25 00:00N 49°00' W 066°54'0 0.0 070 / 31017.3 6.9 6.1
2018-Apr-24 23:00N 49°00' W 066°54'0 0.0 050 / 31017.1 6.6 5.9
2018-Apr-24 22:00N 49°00' W 066°54'0 0.0 070 / 11016.9 7.6 6.4
2018-Apr-24 21:00N 49°00' W 066°54'0 0.0 260 / 121016.3 13.4 9.3
2018-Apr-24 20:00N 49°00' W 066°54'0 0.0 260 / 121016.4 11.3 8.6
2018-Apr-24 19:00N 49°00' W 066°54'0 0.0 260 / 121016.9 9.4 7.3
2018-Apr-24 18:00N 49°00' W 066°54'0 0.0 270 / 111017.4 11.0 8.2
2018-Apr-24 17:00N 49°00' W 066°54'0 0.0 270 / 81018.2 7.3 6.1
2018-Apr-24 16:00N 49°00' W 066°54'0 0.0 260 / 121018.6 6.1 5.3
2018-Apr-24 15:00N 49°00' W 066°54'0 0.0 260 / 91019.0 6.2 5.2
2018-Apr-24 14:00N 49°00' W 066°54'0 0.0 260 / 121019.3 9.0 5.6
2018-Apr-24 13:00N 49°00' W 066°54'0 0.0 250 / 121019.5 13.9 8.0
2018-Apr-24 12:00N 49°00' W 066°54'0 0.0 240 / 81019.8 13.7 7.8
2018-Apr-24 11:00N 49°00' W 066°54'0 0.0 230 / 81020.1 13.2 7.1
2018-Apr-24 10:00N 49°00' W 066°54'0 0.0 190 / 71020.1 11.2 5.3
2018-Apr-24 09:00N 49°00' W 066°54'0 0.0 200 / 71020.1 10.6 4.6
2018-Apr-24 08:00N 49°00' W 066°54'0 0.0 190 / 101020.4 9.9 3.8
2018-Apr-24 07:00N 49°00' W 066°54'0 0.0 210 / 81020.8 11.2 4.9
2018-Apr-24 06:00N 49°00' W 066°54'0 0.0 200 / 91021.1 12.1 5.6
2018-Apr-24 05:00N 49°00' W 066°54'0 0.0 200 / 71021.3 12.0 5.3
2018-Apr-24 04:00N 49°00' W 066°54'0 0.0 190 / 91021.9 11.4 4.9
2018-Apr-24 03:00N 49°00' W 066°54'0 0.0 200 / 21023.0 6.7 3.3
2018-Apr-24 02:00N 49°00' W 066°54'0 0.0 160 / 21023.1 5.1 2.3
2018-Apr-24 01:00N 49°00' W 066°54'0 0.0 260 / 21023.7 5.0 3.5
2018-Apr-24 00:00N 49°00' W 066°54'0 0.0 110 / 11024.0 5.6 4.2
2018-Apr-23 23:00N 49°00' W 066°54'0 0.0 260 / 21024.3 5.8 4.4
2018-Apr-23 22:00N 49°00' W 066°54'0 0.0 270 / 71024.9 5.1 4.4
2018-Apr-23 21:00N 49°00' W 066°54'0 0.0 270 / 61025.4 6.7 5.0
2018-Apr-23 19:00N 49°00' W 066°54'0 0.0 270 / 111026.8 6.2 4.0
2018-Apr-23 18:00N 49°00' W 066°54'0 0.0 270 / 131027.6 5.0 3.8
2018-Apr-23 17:00N 49°00' W 066°54'0 0.0 270 / 131028.3 4.0 3.5
2018-Apr-23 16:00N 49°00' W 066°54'0 0.0 270 / 101028.6 3.4 3.3
2018-Apr-23 15:00N 49°00' W 066°54'0 0.0 270 / 111028.8 3.2 3.0
2018-Apr-23 14:00N 49°00' W 066°54'0 0.0 270 / 111029.4 3.5 3.0
2018-Apr-23 13:00N 49°00' W 066°54'0 0.0 260 / 121029.5 3.8 2.3
2018-Apr-23 12:00N 49°00' W 066°54'0 0.0 270 / 81029.3 4.6 2.4
2018-Apr-23 11:00N 49°00' W 066°54'0 0.0 200 / 31028.8 5.2 1.2
2018-Apr-23 10:00N 49°00' W 066°54'0 0.0 190 / 31027.9 3.7 0.2
2018-Apr-23 09:00N 49°00' W 066°54'0 0.0 180 / 61027.3 2.9-0.6
2018-Apr-23 08:00N 49°00' W 066°54'0 0.0 180 / 31027.0 2.1-0.4
2018-Apr-23 07:00N 49°00' W 066°54'0 0.0 120 / 21026.9 2.5 0.3
2018-Apr-23 06:00N 49°00' W 066°54'0 0.0 200 / 41026.8 3.3 0.1
2018-Apr-23 05:00N 49°00' W 066°54'0 0.0 190 / 51026.5 4.4 0.9
2018-Apr-23 04:00N 49°00' W 066°54'0 0.0 180 / 31026.0 5.0 1.8
2018-Apr-23 03:00N 49°00' W 066°54'0 0.0 250 / 61025.9 6.5 2.9
2018-Apr-23 02:00N 49°00' W 066°54'0 0.0 260 / 101025.7 6.5 2.6
2018-Apr-23 01:00N 49°00' W 066°54'0 0.0 260 / 71025.6 3.2 2.9
2018-Apr-23 00:00N 49°00' W 066°54'0 0.0 280 / 61025.0 2.9 2.8
2018-Apr-22 23:00N 49°00' W 066°54'0 0.0 260 / 101024.6 6.3 3.2
2018-Apr-22 22:00N 49°00' W 066°54'0 0.0 260 / 121024.4 5.0 3.6
2018-Apr-22 21:00N 49°00' W 066°54'0 0.0 260 / 151024.5 4.6 3.5
2018-Apr-22 20:00N 49°00' W 066°54'0 0.0 270 / 111024.5 4.1 3.9
2018-Apr-22 19:00N 49°00' W 066°54'0 0.0 270 / 121024.7 3.5 3.3
2018-Apr-22 18:00N 49°00' W 066°54'0 0.0 270 / 111025.0 3.3 2.7
2018-Apr-22 17:00N 49°00' W 066°54'0 0.0 270 / 91025.4 2.3 1.8
2018-Apr-22 16:00N 49°00' W 066°54'0 0.0 270 / 71025.9 2.0 0.9
2018-Apr-22 15:00N 49°00' W 066°54'0 0.0 270 / 51026.2 1.9 1.6
2018-Apr-22 14:00N 49°00' W 066°54'0 0.0 270 / 51026.1 1.6 1.5
2018-Apr-22 13:00N 49°00' W 066°54'0 0.0 300 / 31025.8 2.1-0.2
2018-Apr-22 12:00N 49°00' W 066°54'0 0.0 280 / 21025.5 2.7 1.3
2018-Apr-22 11:00N 49°00' W 066°54'0 0.0 280 / 21024.8 2.3 1.3
2018-Apr-22 10:00N 49°00' W 066°54'0 0.0 340 / 31024.1 1.5 0.4
2018-Apr-22 09:00N 49°00' W 066°54'0 0.0 230 / 21023.5 1.4 1.2
2018-Apr-22 08:00N 49°00' W 066°54'0 0.0 300 / 11023.0 2.0 1.6
2018-Apr-22 07:00N 49°00' W 066°54'0 0.0 180 / 21022.7 2.6 2.3
2018-Apr-22 06:00N 49°00' W 066°54'0 0.0 050 / 41022.5 2.9 2.4
2018-Apr-22 05:00N 49°00' W 066°54'0 0.0 360 / 61022.5 3.3 2.4
2018-Apr-22 04:00N 49°00' W 066°54'0 0.0 230 / 21022.3 2.8 2.7
2018-Apr-22 03:00N 49°00' W 066°54'0 0.0 270 / 31021.7 2.9 2.8
2018-Apr-22 02:00N 49°00' W 066°54'0 0.0 220 / 11021.5 2.8 2.4
2018-Apr-22 01:00N 49°00' W 066°54'0 0.0 200 / 31021.2 3.7 3.3
2018-Apr-22 00:00N 49°00' W 066°54'0 0.0 180 / 21021.0 4.7 4.0
2018-Apr-21 23:00N 49°00' W 066°54'0 0.0 270 / 81020.5 3.2 3.0
2018-Apr-21 22:00N 49°00' W 066°54'0 0.0 270 / 81020.2 2.9 2.8
2018-Apr-21 21:00N 49°00' W 066°54'0 0.0 270 / 101020.2 3.6 3.5
2018-Apr-21 20:00N 49°00' W 066°54'0 0.0 270 / 71020.3 2.9 2.9
2018-Apr-21 19:00N 49°00' W 066°54'0 0.0 280 / 51020.7 2.6 2.5
2018-Apr-21 18:00N 49°00' W 066°54'0 0.0 270 / 51020.8 2.7 2.5
2018-Apr-21 17:00N 49°00' W 066°54'0 0.0 270 / 61021.0 2.1 1.9
2018-Apr-21 16:00N 49°00' W 066°54'0 0.0 270 / 31021.2 2.0 1.8
2018-Apr-21 15:00N 49°00' W 066°54'0 0.0 300 / 51021.4 1.7 1.5
2018-Apr-21 14:00N 49°00' W 066°54'0 0.0 320 / 111021.1 0.7 0.5
2018-Apr-21 13:00N 49°00' W 066°54'0 0.0 330 / 161020.9 0.8 0.6
2018-Apr-21 12:00N 49°00' W 066°54'0 0.0 320 / 141020.4 0.9 0.8
2018-Apr-21 11:00N 49°00' W 066°54'0 0.0 310 / 101020.1 1.0 1.0
2018-Apr-21 10:00N 49°00' W 066°54'0 0.0 310 / 111019.7 0.6 0.7
2018-Apr-21 09:00N 49°00' W 066°54'0 0.0 310 / 111019.2 0.5 0.7
2018-Apr-21 08:00N 49°00' W 066°54'0 0.0 320 / 111019.0 0.6 0.9
2018-Apr-21 07:00N 49°00' W 066°54'0 0.0 330 / 111018.9 0.9 1.3
2018-Apr-21 06:00N 49°00' W 066°54'0 0.0 250 / 21018.9 0.4 1.0
2018-Apr-21 05:00N 49°00' W 066°54'0 0.0 260 / 51018.9 0.3 0.8
2018-Apr-21 04:00N 49°00' W 066°54'0 0.0 270 / 61019.1 0.4 1.0
2018-Apr-21 03:00N 49°00' W 066°54'0 0.0 270 / 91018.8 0.3 0.9
2018-Apr-21 02:00N 49°00' W 066°54'0 0.0 270 / 51018.7 0.2 0.8
2018-Apr-21 01:00N 49°00' W 066°54'0 0.0 260 / 91018.5 -0.2 0.4
2018-Apr-21 00:00N 49°00' W 066°54'0 0.0 270 / 41018.3 0.2 0.7
2018-Apr-20 23:00N 49°00' W 066°54'0 0.0 270 / 51017.6 0.1 0.6
2018-Apr-20 22:00N 49°00' W 066°54'0 0.0 280 / 21017.2 0.9 1.4
2018-Apr-20 21:00N 49°00' W 066°54'0 0.0 280 / 11016.9 1.0 1.6
2018-Apr-20 20:00N 49°00' W 066°54'0 0.0 310 / 31016.6 0.4 0.9
2018-Apr-20 19:00N 49°00' W 066°54'0 0.0 040 / 61016.4 0.3 0.9
2018-Apr-20 18:00N 49°00' W 066°54'0 0.0 040 / 71016.5 0.1 0.7
2018-Apr-20 17:00N 49°00' W 066°54'0 0.0 040 / 81016.4 0.1 0.8
2018-Apr-20 16:00N 49°00' W 066°54'0 0.0 050 / 121016.2 0.1 0.7
2018-Apr-20 15:00N 49°00' W 066°54'0 0.0 060 / 141016.0 0.1 0.7
2018-Apr-20 14:00N 49°00' W 066°54'0 0.0 050 / 161015.3 0.2 0.8
2018-Apr-20 13:00N 49°00' W 066°54'0 0.0 040 / 151014.5 0.2 0.8
2018-Apr-20 12:00N 49°00' W 066°54'0 0.0 040 / 181013.4 0.4 0.9
2018-Apr-20 11:00N 49°00' W 066°54'0 0.0 040 / 181012.6 0.5 1.0
2018-Apr-20 10:00N 49°00' W 066°54'0 0.0 050 / 191011.7 0.5 1.0
2018-Apr-20 09:00N 49°00' W 066°54'0 0.0 060 / 91011.4 0.4 0.8
2018-Apr-20 08:00N 49°00' W 066°54'0 0.0 050 / 71011.0 0.3 0.7
2018-Apr-20 07:00N 49°00' W 066°54'0 0.0 050 / 111010.6 0.6 1.0
2018-Apr-20 06:00N 49°00' W 066°54'0 0.0 080 / 71010.5 1.1 1.5
2018-Apr-20 05:00N 49°00' W 066°54'0 0.0 050 / 61010.7 0.4 0.7
2018-Apr-20 04:00N 49°00' W 066°54'0 0.0 060 / 61010.7 1.3 1.5
2018-Apr-20 03:00N 49°00' W 066°54'0 0.0 080 / 51010.5 1.6 1.9
2018-Apr-20 02:00N 49°00' W 066°54'0 0.0 100 / 41010.5 1.4 1.7
2018-Apr-20 01:00N 49°00' W 066°54'0 0.0 080 / 51010.3 1.1 1.6
2018-Apr-20 00:00N 49°00' W 066°54'0 0.0 070 / 71010.0 1.0 1.4
2018-Apr-19 23:00N 49°00' W 066°54'0 0.0 050 / 61009.3 0.7 1.2
2018-Apr-19 22:00N 49°00' W 066°54'0 0.0 020 / 61008.7 0.6 1.1
2018-Apr-19 21:00N 49°00' W 066°54'0 0.0 050 / 101008.3 0.7 1.1
2018-Apr-19 20:00N 49°00' W 066°54'0 0.0 040 / 101008.1 0.5 0.9
2018-Apr-19 19:00N 49°00' W 066°54'0 0.0 030 / 81007.7 0.8 1.3
2018-Apr-19 18:00N 49°00' W 066°54'0 0.0 030 / 71007.4 0.9 1.4
2018-Apr-19 17:00N 49°00' W 066°54'0 0.0 050 / 41006.9 1.2 1.8
2018-Apr-19 16:00N 49°00' W 066°54'0 0.0 340 / 51006.3 2.3 3.0
2018-Apr-19 15:00N 49°00' W 066°54'0 0.0 360 / 21005.8 0.9 1.4
2018-Apr-19 14:00N 49°00' W 066°54'0 0.0 010 / 11005.1 1.3 1.8
2018-Apr-19 13:00N 49°00' W 066°54'0 0.0 280 / 21004.0 0.7 1.2
2018-Apr-19 12:00N 49°00' W 066°54'0 0.0 270 / 41003.2 0.4 0.8
2018-Apr-19 11:00N 49°00' W 066°54'0 0.0 260 / 51002.3 0.1 0.5
2018-Apr-19 10:00N 49°00' W 066°54'0 0.0 280 / 31001.4 -0.1 0.3
2018-Apr-19 09:00N 49°00' W 066°54'0 0.0 270 / 41000.6 -0.0 0.4
2018-Apr-19 08:00N 49°00' W 066°54'0 0.0 260 / 41000.2 0.2 0.5
2018-Apr-19 07:00N 49°00' W 066°54'0 0.0 270 / 6999.7 0.4 0.7
2018-Apr-19 06:00N 49°00' W 066°54'0 0.0 260 / 3999.4 0.3 0.6
2018-Apr-19 05:00N 49°00' W 066°54'0 0.0 260 / 2999.2 0.6 0.9
2018-Apr-19 04:00N 49°00' W 066°54'0 0.0 340 / 2999.1 0.8 1.0
2018-Apr-19 03:00N 49°00' W 066°54'0 0.0 280 / 1998.8 1.1 1.4
2018-Apr-19 02:00N 49°00' W 066°54'0 0.0 270 / 2999.0 1.5 1.7
2018-Apr-19 01:00N 49°00' W 066°54'0 0.0 260 / 2999.1 1.7 1.9
2018-Apr-19 00:00N 49°00' W 066°54'0 0.0 260 / 2998.7 1.4 1.6
2018-Apr-18 23:00N 49°00' W 066°54'0 0.0 270 / 4998.3 0.9 1.1
2018-Apr-18 22:00N 49°00' W 066°54'0 0.0 260 / 6998.1 1.1 1.3
2018-Apr-18 21:00N 49°00' W 066°54'0 0.0 270 / 7997.5 1.0 1.2
2018-Apr-18 20:00N 49°00' W 066°54'0 0.0 270 / 7996.9 0.6 0.9
2018-Apr-18 19:00N 49°00' W 066°54'0 0.0 270 / 8996.3 0.7 1.1
2018-Apr-18 18:00N 49°00' W 066°54'0 0.0 270 / 6995.8 1.0 1.5
2018-Apr-18 17:00N 49°00' W 066°54'0 0.0 270 / 7995.5 1.0 1.9
2018-Apr-18 16:00N 49°00' W 066°54'0 0.0 270 / 5995.4 1.3 4.5
2018-Apr-18 14:00N 49°00' W 066°54'0 0.0 270 / 5995.1 -0.1 0.6
2018-Apr-18 13:00N 49°00' W 066°54'0 0.0 270 / 7994.5 0.1 0.9
2018-Apr-18 12:00N 49°00' W 066°54'0 0.0 270 / 3994.1 0.4 1.3
2018-Apr-18 11:00N 49°00' W 066°54'0 0.0 210 / 1993.9 1.2 2.0
2018-Apr-18 10:00N 49°00' W 066°54'0 0.0 260 / 1993.8 0.4 1.1
2018-Apr-18 09:00N 49°00' W 066°54'0 0.0 260 / 3993.7 -0.2 0.7
2018-Apr-18 08:00N 49°00' W 066°54'0 0.0 260 / 2994.0 0.2 3.3
2018-Apr-18 07:00N 49°00' W 066°54'0 0.0 994.4 -0.2 0.4
2018-Apr-18 06:00N 49°00' W 066°54'0 0.0 270 / 1994.9 0.4 1.0
2018-Apr-18 05:00N 49°00' W 066°54'0 0.0 160 / 1995.9 0.4 0.7
2018-Apr-18 04:00N 49°00' W 066°54'0 0.0 060 / 6996.4 0.1 0.4
2018-Apr-18 03:00N 49°00' W 066°54'0 0.0 050 / 11997.3 0.1 0.3
2018-Apr-18 02:00N 49°00' W 066°54'0 0.0 050 / 13999.0 0.4 0.6
2018-Apr-18 01:00N 49°00' W 066°54'0 0.0 060 / 16999.4 0.2 0.4
2018-Apr-18 00:00N 49°00' W 066°54'0 0.0 050 / 141000.3 0.5 0.6
2018-Apr-17 23:00N 49°00' W 066°54'0 0.0 050 / 121001.0 0.5 0.7
2018-Apr-17 22:00N 49°00' W 066°54'0 0.0 060 / 131001.4 0.9 1.0
2018-Apr-17 21:00N 49°00' W 066°54'0 0.0 050 / 131002.0 1.2 1.3
2018-Apr-17 20:00N 49°00' W 066°54'0 0.0 070 / 71002.8 2.9 2.9
2018-Apr-17 19:00N 49°00' W 066°54'0 0.0 060 / 161003.5 2.0 2.0
2018-Apr-17 18:00N 49°00' W 066°54'0 0.0 070 / 121004.7 3.4 3.3
2018-Apr-17 17:00N 49°00' W 066°54'0 0.0 040 / 201005.5 1.6 1.6
2018-Apr-17 16:00N 49°00' W 066°54'0 0.0 060 / 161007.3 1.0 0.9
2018-Apr-17 15:00N 49°00' W 066°54'0 0.0 070 / 181008.6 2.6 2.5
2018-Apr-17 14:00N 49°00' W 066°54'0 0.0 090 / 161010.1 2.7 2.7
2018-Apr-17 13:00N 49°00' W 066°54'0 0.0 060 / 111011.1 2.2 2.3
2018-Apr-17 12:00N 49°00' W 066°54'0 0.0 060 / 51012.1 2.1 2.2
2018-Apr-17 11:00N 49°00' W 066°54'0 0.0 050 / 21013.2 1.7 1.9
2018-Apr-17 10:00N 49°00' W 066°54'0 0.0 060 / 31014.4 1.5 1.7
2018-Apr-17 09:00N 49°00' W 066°54'0 0.0 050 / 21016.2 1.0 1.2
2018-Apr-17 08:00N 49°00' W 066°54'0 0.0 070 / 51016.8 0.9 1.1
2018-Apr-17 07:00N 49°00' W 066°54'0 0.0 060 / 91017.8 0.8 1.0
2018-Apr-17 06:00N 49°00' W 066°54'0 0.0 080 / 101020.2 1.0 1.2
2018-Apr-17 05:00N 49°00' W 066°54'0 0.0 070 / 121021.7 0.8 0.9
2018-Apr-17 04:00N 49°00' W 066°54'0 0.0 070 / 101022.9 0.4 0.5
2018-Apr-17 03:00N 49°00' W 066°54'0 0.0 060 / 161023.7 0.5 0.6
2018-Apr-17 02:00N 49°00' W 066°54'0 0.0 060 / 141025.3 0.6 0.7
2018-Apr-17 01:00N 49°00' W 066°54'0 0.0 060 / 111026.4 0.3 0.4
2018-Apr-17 00:00N 49°00' W 066°54'0 0.0 060 / 91027.5 0.4 0.4
2018-Apr-16 23:00N 49°00' W 066°54'0 0.0 080 / 101028.5 1.3 1.2
2018-Apr-16 22:00N 49°00' W 066°54'0 0.0 060 / 71028.5 1.0 0.7
2018-Apr-16 21:00N 49°00' W 066°54'0 0.0 060 / 161028.8 0.3 0.1
2018-Apr-16 20:00N 49°00' W 066°54'0 0.0 050 / 161029.8 -0.0-0.2
2018-Apr-16 19:00N 49°00' W 066°54'0 0.0 050 / 171030.8 -0.2-0.4
2018-Apr-16 18:00N 49°00' W 066°54'0 0.0 060 / 181032.0 -0.2-0.4
2018-Apr-16 17:00N 49°00' W 066°54'0 0.0 050 / 181033.0 -0.2-0.4
2018-Apr-16 16:00N 49°00' W 066°54'0 0.0 050 / 161034.5 -0.2-0.4
2018-Apr-16 15:00N 49°00' W 066°54'0 0.0 040 / 131035.9 -1.0-1.2
2018-Apr-16 14:00N 49°00' W 066°54'0 0.0 040 / 131036.7 -1.4-1.9
2018-Apr-16 13:00N 49°00' W 066°54'0 0.0 040 / 121037.2 -1.3-3.3
2018-Apr-16 12:00N 49°00' W 066°54'0 0.0 090 / 31037.6 -2.1-6.0
2018-Apr-16 11:00N 49°00' W 066°54'0 0.0 140 / 51038.0 -5.0-8.0
2018-Apr-16 10:00N 49°00' W 066°54'0 0.0 150 / 61038.3 -7.0-9.6
2018-Apr-16 09:00N 49°00' W 066°54'0 0.0 150 / 51038.9 -7.1-9.5
2018-Apr-16 08:00N 49°00' W 066°54'0 0.0 150 / 51039.3 -7.3-9.3
2018-Apr-16 07:00N 49°00' W 066°54'0 0.0 150 / 41039.4 -6.6-9.1
2018-Apr-16 06:00N 49°00' W 066°54'0 0.0 150 / 41039.9 -6.8-9.4
2018-Apr-16 05:00N 49°00' W 066°54'0 0.0 150 / 41039.9 -6.4-9.3
2018-Apr-16 04:00N 49°00' W 066°54'0 0.0 150 / 41040.1 -6.2-9.1
2018-Apr-16 03:00N 49°00' W 066°54'0 0.0 150 / 31040.3 -5.7-8.7
2018-Apr-16 02:00N 49°00' W 066°54'0 0.0 140 / 21040.4 -5.2-7.8
2018-Apr-16 01:00N 49°00' W 066°54'0 0.0 150 / 31040.6 -4.5-7.4
2018-Apr-16 00:00N 49°00' W 066°54'0 0.0 180 / 21040.5 -2.3-6.5
2018-Apr-15 23:00N 49°00' W 066°54'0 0.0 270 / 61039.9 -2.6-7.0
2018-Apr-15 22:00N 49°00' W 066°54'0 0.0 270 / 51039.7 -2.3-6.9
2018-Apr-15 21:00N 49°00' W 066°54'0 0.0 280 / 31039.1 -2.6-7.5
2018-Apr-15 20:00N 49°00' W 066°54'0 0.0 270 / 51039.5 -3.7-9.2
2018-Apr-15 19:00N 49°00' W 066°54'0 0.0 270 / 81039.6 -5.2-9.7
2018-Apr-15 18:00N 49°00' W 066°54'0 0.0 270 / 71039.9 -6.4-11.0
2018-Apr-15 17:00N 49°00' W 066°54'0 0.0 260 / 71040.0 -7.4-11.9
2018-Apr-15 16:00N 49°00' W 066°54'0 0.0 270 / 41039.9 -7.8-12.6
2018-Apr-15 15:00N 49°00' W 066°54'0 0.0 280 / 31040.3 -8.2-12.6
2018-Apr-15 14:00N 49°00' W 066°54'0 0.0 300 / 61039.9 -8.9-13.3
2018-Apr-15 13:00N 49°00' W 066°54'0 0.0 300 / 41040.1 -8.7-12.8
2018-Apr-15 12:00N 49°00' W 066°54'0 0.0 290 / 41039.8 -9.0-13.7
2018-Apr-15 11:00N 49°00' W 066°54'0 0.0 290 / 41038.4 -9.2-14.2
2018-Apr-15 10:00N 49°00' W 066°54'0 0.0 320 / 131037.6 -9.9-15.3
2018-Apr-15 09:00N 49°00' W 066°54'0 0.0 330 / 121037.4 -9.4-14.7
2018-Apr-15 08:00N 49°00' W 066°54'0 0.0 330 / 141036.4 -9.2-14.7
2018-Apr-15 07:00N 49°00' W 066°54'0 0.0 320 / 151035.6 -9.0-14.6
2018-Apr-15 06:00N 49°00' W 066°54'0 0.0 330 / 171034.7 -8.4-14.2
2018-Apr-15 05:00N 49°00' W 066°54'0 0.0 330 / 191033.8 -7.9-14.2
2018-Apr-15 04:00N 49°00' W 066°54'0 0.0 320 / 201032.8 -7.1-14.3
2018-Apr-15 03:00N 49°00' W 066°54'0 0.0 310 / 181031.5 -6.3-13.6
2018-Apr-15 02:00N 49°00' W 066°54'   310 / 201030.3 -5.0-12.2
Track history (hours):
 
Tides and Currents Weather Stations Pressure Air Temp Water Temp Dewpoint Dewpoint Depression Visibility Wind Speed Wind Dir Waves Ship Positions

Madeleine

Last reported at 2018-Apr-25 02:00 UTC. Time now 2018-Apr-25 02:59 UTC.
Position N 49°00' W 066°54'.

Length 123 m; draft 4.8 m.

Type: Ship. MMSI: 316003239.

Wind from 120 at 2 knots

Barometer 1017.5 mb
Air temperature 6.8 ° C
Dewpoint 5.9 ° C

Date/timePositionNaut miles runAvg speedWind from/ knotsBaromVisibWave heightAir tempDewpointWater temp
2018-Apr-25 02:00N 49°00' W 066°54'0 0.0 120 / 21017.5 6.8 5.9
2018-Apr-25 01:00N 49°00' W 066°54'0 0.0 060 / 21017.8 6.3 5.7
2018-Apr-25 00:00N 49°00' W 066°54'0 0.0 070 / 31017.3 6.9 6.1
2018-Apr-24 23:00N 49°00' W 066°54'0 0.0 050 / 31017.1 6.6 5.9
2018-Apr-24 22:00N 49°00' W 066°54'0 0.0 070 / 11016.9 7.6 6.4
2018-Apr-24 21:00N 49°00' W 066°54'0 0.0 260 / 121016.3 13.4 9.3
2018-Apr-24 20:00N 49°00' W 066°54'0 0.0 260 / 121016.4 11.3 8.6
2018-Apr-24 19:00N 49°00' W 066°54'0 0.0 260 / 121016.9 9.4 7.3
2018-Apr-24 18:00N 49°00' W 066°54'0 0.0 270 / 111017.4 11.0 8.2
2018-Apr-24 17:00N 49°00' W 066°54'0 0.0 270 / 81018.2 7.3 6.1
2018-Apr-24 16:00N 49°00' W 066°54'0 0.0 260 / 121018.6 6.1 5.3
2018-Apr-24 15:00N 49°00' W 066°54'0 0.0 260 / 91019.0 6.2 5.2
2018-Apr-24 14:00N 49°00' W 066°54'0 0.0 260 / 121019.3 9.0 5.6
2018-Apr-24 13:00N 49°00' W 066°54'0 0.0 250 / 121019.5 13.9 8.0
2018-Apr-24 12:00N 49°00' W 066°54'0 0.0 240 / 81019.8 13.7 7.8
2018-Apr-24 11:00N 49°00' W 066°54'0 0.0 230 / 81020.1 13.2 7.1
2018-Apr-24 10:00N 49°00' W 066°54'0 0.0 190 / 71020.1 11.2 5.3
2018-Apr-24 09:00N 49°00' W 066°54'0 0.0 200 / 71020.1 10.6 4.6
2018-Apr-24 08:00N 49°00' W 066°54'0 0.0 190 / 101020.4 9.9 3.8
2018-Apr-24 07:00N 49°00' W 066°54'0 0.0 210 / 81020.8 11.2 4.9
2018-Apr-24 06:00N 49°00' W 066°54'0 0.0 200 / 91021.1 12.1 5.6
2018-Apr-24 05:00N 49°00' W 066°54'0 0.0 200 / 71021.3 12.0 5.3
2018-Apr-24 04:00N 49°00' W 066°54'0 0.0 190 / 91021.9 11.4 4.9
2018-Apr-24 03:00N 49°00' W 066°54'0 0.0 200 / 21023.0 6.7 3.3
2018-Apr-24 02:00N 49°00' W 066°54'0 0.0 160 / 21023.1 5.1 2.3
2018-Apr-24 01:00N 49°00' W 066°54'0 0.0 260 / 21023.7 5.0 3.5
2018-Apr-24 00:00N 49°00' W 066°54'0 0.0 110 / 11024.0 5.6 4.2
2018-Apr-23 23:00N 49°00' W 066°54'0 0.0 260 / 21024.3 5.8 4.4
2018-Apr-23 22:00N 49°00' W 066°54'0 0.0 270 / 71024.9 5.1 4.4
2018-Apr-23 21:00N 49°00' W 066°54'0 0.0 270 / 61025.4 6.7 5.0
2018-Apr-23 19:00N 49°00' W 066°54'0 0.0 270 / 111026.8 6.2 4.0
2018-Apr-23 18:00N 49°00' W 066°54'0 0.0 270 / 131027.6 5.0 3.8
2018-Apr-23 17:00N 49°00' W 066°54'0 0.0 270 / 131028.3 4.0 3.5
2018-Apr-23 16:00N 49°00' W 066°54'0 0.0 270 / 101028.6 3.4 3.3
2018-Apr-23 15:00N 49°00' W 066°54'0 0.0 270 / 111028.8 3.2 3.0
2018-Apr-23 14:00N 49°00' W 066°54'0 0.0 270 / 111029.4 3.5 3.0
2018-Apr-23 13:00N 49°00' W 066°54'0 0.0 260 / 121029.5 3.8 2.3
2018-Apr-23 12:00N 49°00' W 066°54'0 0.0 270 / 81029.3 4.6 2.4
2018-Apr-23 11:00N 49°00' W 066°54'0 0.0 200 / 31028.8 5.2 1.2
2018-Apr-23 10:00N 49°00' W 066°54'0 0.0 190 / 31027.9 3.7 0.2
2018-Apr-23 09:00N 49°00' W 066°54'0 0.0 180 / 61027.3 2.9-0.6
2018-Apr-23 08:00N 49°00' W 066°54'0 0.0 180 / 31027.0 2.1-0.4
2018-Apr-23 07:00N 49°00' W 066°54'0 0.0 120 / 21026.9 2.5 0.3
2018-Apr-23 06:00N 49°00' W 066°54'0 0.0 200 / 41026.8 3.3 0.1
2018-Apr-23 05:00N 49°00' W 066°54'0 0.0 190 / 51026.5 4.4 0.9
2018-Apr-23 04:00N 49°00' W 066°54'0 0.0 180 / 31026.0 5.0 1.8
2018-Apr-23 03:00N 49°00' W 066°54'0 0.0 250 / 61025.9 6.5 2.9
2018-Apr-23 02:00N 49°00' W 066°54'0 0.0 260 / 101025.7 6.5 2.6
2018-Apr-23 01:00N 49°00' W 066°54'0 0.0 260 / 71025.6 3.2 2.9
2018-Apr-23 00:00N 49°00' W 066°54'0 0.0 280 / 61025.0 2.9 2.8
2018-Apr-22 23:00N 49°00' W 066°54'0 0.0 260 / 101024.6 6.3 3.2
2018-Apr-22 22:00N 49°00' W 066°54'0 0.0 260 / 121024.4 5.0 3.6
2018-Apr-22 21:00N 49°00' W 066°54'0 0.0 260 / 151024.5 4.6 3.5
2018-Apr-22 20:00N 49°00' W 066°54'0 0.0 270 / 111024.5 4.1 3.9
2018-Apr-22 19:00N 49°00' W 066°54'0 0.0 270 / 121024.7 3.5 3.3
2018-Apr-22 18:00N 49°00' W 066°54'0 0.0 270 / 111025.0 3.3 2.7
2018-Apr-22 17:00N 49°00' W 066°54'0 0.0 270 / 91025.4 2.3 1.8
2018-Apr-22 16:00N 49°00' W 066°54'0 0.0 270 / 71025.9 2.0 0.9
2018-Apr-22 15:00N 49°00' W 066°54'0 0.0 270 / 51026.2 1.9 1.6
2018-Apr-22 14:00N 49°00' W 066°54'0 0.0 270 / 51026.1 1.6 1.5
2018-Apr-22 13:00N 49°00' W 066°54'0 0.0 300 / 31025.8 2.1-0.2
2018-Apr-22 12:00N 49°00' W 066°54'0 0.0 280 / 21025.5 2.7 1.3
2018-Apr-22 11:00N 49°00' W 066°54'0 0.0 280 / 21024.8 2.3 1.3
2018-Apr-22 10:00N 49°00' W 066°54'0 0.0 340 / 31024.1 1.5 0.4
2018-Apr-22 09:00N 49°00' W 066°54'0 0.0 230 / 21023.5 1.4 1.2
2018-Apr-22 08:00N 49°00' W 066°54'0 0.0 300 / 11023.0 2.0 1.6
2018-Apr-22 07:00N 49°00' W 066°54'0 0.0 180 / 21022.7 2.6 2.3
2018-Apr-22 06:00N 49°00' W 066°54'0 0.0 050 / 41022.5 2.9 2.4
2018-Apr-22 05:00N 49°00' W 066°54'0 0.0 360 / 61022.5 3.3 2.4
2018-Apr-22 04:00N 49°00' W 066°54'0 0.0 230 / 21022.3 2.8 2.7
2018-Apr-22 03:00N 49°00' W 066°54'0 0.0 270 / 31021.7 2.9 2.8
2018-Apr-22 02:00N 49°00' W 066°54'0 0.0 220 / 11021.5 2.8 2.4
2018-Apr-22 01:00N 49°00' W 066°54'0 0.0 200 / 31021.2 3.7 3.3
2018-Apr-22 00:00N 49°00' W 066°54'0 0.0 180 / 21021.0 4.7 4.0
2018-Apr-21 23:00N 49°00' W 066°54'0 0.0 270 / 81020.5 3.2 3.0
2018-Apr-21 22:00N 49°00' W 066°54'0 0.0 270 / 81020.2 2.9 2.8
2018-Apr-21 21:00N 49°00' W 066°54'0 0.0 270 / 101020.2 3.6 3.5
2018-Apr-21 20:00N 49°00' W 066°54'0 0.0 270 / 71020.3 2.9 2.9
2018-Apr-21 19:00N 49°00' W 066°54'0 0.0 280 / 51020.7 2.6 2.5
2018-Apr-21 18:00N 49°00' W 066°54'0 0.0 270 / 51020.8 2.7 2.5
2018-Apr-21 17:00N 49°00' W 066°54'0 0.0 270 / 61021.0 2.1 1.9
2018-Apr-21 16:00N 49°00' W 066°54'0 0.0 270 / 31021.2 2.0 1.8
2018-Apr-21 15:00N 49°00' W 066°54'0 0.0 300 / 51021.4 1.7 1.5
2018-Apr-21 14:00N 49°00' W 066°54'0 0.0 320 / 111021.1 0.7 0.5
2018-Apr-21 13:00N 49°00' W 066°54'0 0.0 330 / 161020.9 0.8 0.6
2018-Apr-21 12:00N 49°00' W 066°54'0 0.0 320 / 141020.4 0.9 0.8
2018-Apr-21 11:00N 49°00' W 066°54'0 0.0 310 / 101020.1 1.0 1.0
2018-Apr-21 10:00N 49°00' W 066°54'0 0.0 310 / 111019.7 0.6 0.7
2018-Apr-21 09:00N 49°00' W 066°54'0 0.0 310 / 111019.2 0.5 0.7
2018-Apr-21 08:00N 49°00' W 066°54'0 0.0 320 / 111019.0 0.6 0.9
2018-Apr-21 07:00N 49°00' W 066°54'0 0.0 330 / 111018.9 0.9 1.3
2018-Apr-21 06:00N 49°00' W 066°54'0 0.0 250 / 21018.9 0.4 1.0
2018-Apr-21 05:00N 49°00' W 066°54'0 0.0 260 / 51018.9 0.3 0.8
2018-Apr-21 04:00N 49°00' W 066°54'0 0.0 270 / 61019.1 0.4 1.0
2018-Apr-21 03:00N 49°00' W 066°54'0 0.0 270 / 91018.8 0.3 0.9
2018-Apr-21 02:00N 49°00' W 066°54'0 0.0 270 / 51018.7 0.2 0.8
2018-Apr-21 01:00N 49°00' W 066°54'0 0.0 260 / 91018.5 -0.2 0.4
2018-Apr-21 00:00N 49°00' W 066°54'0 0.0 270 / 41018.3 0.2 0.7
2018-Apr-20 23:00N 49°00' W 066°54'0 0.0 270 / 51017.6 0.1 0.6
2018-Apr-20 22:00N 49°00' W 066°54'0 0.0 280 / 21017.2 0.9 1.4
2018-Apr-20 21:00N 49°00' W 066°54'0 0.0 280 / 11016.9 1.0 1.6
2018-Apr-20 20:00N 49°00' W 066°54'0 0.0 310 / 31016.6 0.4 0.9
2018-Apr-20 19:00N 49°00' W 066°54'0 0.0 040 / 61016.4 0.3 0.9
2018-Apr-20 18:00N 49°00' W 066°54'0 0.0 040 / 71016.5 0.1 0.7
2018-Apr-20 17:00N 49°00' W 066°54'0 0.0 040 / 81016.4 0.1 0.8
2018-Apr-20 16:00N 49°00' W 066°54'0 0.0 050 / 121016.2 0.1 0.7
2018-Apr-20 15:00N 49°00' W 066°54'0 0.0 060 / 141016.0 0.1 0.7
2018-Apr-20 14:00N 49°00' W 066°54'0 0.0 050 / 161015.3 0.2 0.8
2018-Apr-20 13:00N 49°00' W 066°54'0 0.0 040 / 151014.5 0.2 0.8
2018-Apr-20 12:00N 49°00' W 066°54'0 0.0 040 / 181013.4 0.4 0.9
2018-Apr-20 11:00N 49°00' W 066°54'0 0.0 040 / 181012.6 0.5 1.0
2018-Apr-20 10:00N 49°00' W 066°54'0 0.0 050 / 191011.7 0.5 1.0
2018-Apr-20 09:00N 49°00' W 066°54'0 0.0 060 / 91011.4 0.4 0.8
2018-Apr-20 08:00N 49°00' W 066°54'0 0.0 050 / 71011.0 0.3 0.7
2018-Apr-20 07:00N 49°00' W 066°54'0 0.0 050 / 111010.6 0.6 1.0
2018-Apr-20 06:00N 49°00' W 066°54'0 0.0 080 / 71010.5 1.1 1.5
2018-Apr-20 05:00N 49°00' W 066°54'0 0.0 050 / 61010.7 0.4 0.7
2018-Apr-20 04:00N 49°00' W 066°54'0 0.0 060 / 61010.7 1.3 1.5
2018-Apr-20 03:00N 49°00' W 066°54'0 0.0 080 / 51010.5 1.6 1.9
2018-Apr-20 02:00N 49°00' W 066°54'0 0.0 100 / 41010.5 1.4 1.7
2018-Apr-20 01:00N 49°00' W 066°54'0 0.0 080 / 51010.3 1.1 1.6
2018-Apr-20 00:00N 49°00' W 066°54'0 0.0 070 / 71010.0 1.0 1.4
2018-Apr-19 23:00N 49°00' W 066°54'0 0.0 050 / 61009.3 0.7 1.2
2018-Apr-19 22:00N 49°00' W 066°54'0 0.0 020 / 61008.7 0.6 1.1
2018-Apr-19 21:00N 49°00' W 066°54'0 0.0 050 / 101008.3 0.7 1.1
2018-Apr-19 20:00N 49°00' W 066°54'0 0.0 040 / 101008.1 0.5 0.9
2018-Apr-19 19:00N 49°00' W 066°54'0 0.0 030 / 81007.7 0.8 1.3
2018-Apr-19 18:00N 49°00' W 066°54'0 0.0 030 / 71007.4 0.9 1.4
2018-Apr-19 17:00N 49°00' W 066°54'0 0.0 050 / 41006.9 1.2 1.8
2018-Apr-19 16:00N 49°00' W 066°54'0 0.0 340 / 51006.3 2.3 3.0
2018-Apr-19 15:00N 49°00' W 066°54'0 0.0 360 / 21005.8 0.9 1.4
2018-Apr-19 14:00N 49°00' W 066°54'0 0.0 010 / 11005.1 1.3 1.8
2018-Apr-19 13:00N 49°00' W 066°54'0 0.0 280 / 21004.0 0.7 1.2
2018-Apr-19 12:00N 49°00' W 066°54'0 0.0 270 / 41003.2 0.4 0.8
2018-Apr-19 11:00N 49°00' W 066°54'0 0.0 260 / 51002.3 0.1 0.5
2018-Apr-19 10:00N 49°00' W 066°54'0 0.0 280 / 31001.4 -0.1 0.3
2018-Apr-19 09:00N 49°00' W 066°54'0 0.0 270 / 41000.6 -0.0 0.4
2018-Apr-19 08:00N 49°00' W 066°54'0 0.0 260 / 41000.2 0.2 0.5
2018-Apr-19 07:00N 49°00' W 066°54'0 0.0 270 / 6999.7 0.4 0.7
2018-Apr-19 06:00N 49°00' W 066°54'0 0.0 260 / 3999.4 0.3 0.6
2018-Apr-19 05:00N 49°00' W 066°54'0 0.0 260 / 2999.2 0.6 0.9
2018-Apr-19 04:00N 49°00' W 066°54'0 0.0 340 / 2999.1 0.8 1.0
2018-Apr-19 03:00N 49°00' W 066°54'0 0.0 280 / 1998.8 1.1 1.4
2018-Apr-19 02:00N 49°00' W 066°54'0 0.0 270 / 2999.0 1.5 1.7
2018-Apr-19 01:00N 49°00' W 066°54'0 0.0 260 / 2999.1 1.7 1.9
2018-Apr-19 00:00N 49°00' W 066°54'0 0.0 260 / 2998.7 1.4 1.6
2018-Apr-18 23:00N 49°00' W 066°54'0 0.0 270 / 4998.3 0.9 1.1
2018-Apr-18 22:00N 49°00' W 066°54'0 0.0 260 / 6998.1 1.1 1.3
2018-Apr-18 21:00N 49°00' W 066°54'0 0.0 270 / 7997.5 1.0 1.2
2018-Apr-18 20:00N 49°00' W 066°54'0 0.0 270 / 7996.9 0.6 0.9
2018-Apr-18 19:00N 49°00' W 066°54'0 0.0 270 / 8996.3 0.7 1.1
2018-Apr-18 18:00N 49°00' W 066°54'0 0.0 270 / 6995.8 1.0 1.5
2018-Apr-18 17:00N 49°00' W 066°54'0 0.0 270 / 7995.5 1.0 1.9
2018-Apr-18 16:00N 49°00' W 066°54'0 0.0 270 / 5995.4 1.3 4.5
2018-Apr-18 14:00N 49°00' W 066°54'0 0.0 270 / 5995.1 -0.1 0.6
2018-Apr-18 13:00N 49°00' W 066°54'0 0.0 270 / 7994.5 0.1 0.9
2018-Apr-18 12:00N 49°00' W 066°54'0 0.0 270 / 3994.1 0.4 1.3
2018-Apr-18 11:00N 49°00' W 066°54'0 0.0 210 / 1993.9 1.2 2.0
2018-Apr-18 10:00N 49°00' W 066°54'0 0.0 260 / 1993.8 0.4 1.1
2018-Apr-18 09:00N 49°00' W 066°54'0 0.0 260 / 3993.7 -0.2 0.7
2018-Apr-18 08:00N 49°00' W 066°54'0 0.0 260 / 2994.0 0.2 3.3
2018-Apr-18 07:00N 49°00' W 066°54'0 0.0 994.4 -0.2 0.4
2018-Apr-18 06:00N 49°00' W 066°54'0 0.0 270 / 1994.9 0.4 1.0
2018-Apr-18 05:00N 49°00' W 066°54'0 0.0 160 / 1995.9 0.4 0.7
2018-Apr-18 04:00N 49°00' W 066°54'0 0.0 060 / 6996.4 0.1 0.4
2018-Apr-18 03:00N 49°00' W 066°54'0 0.0 050 / 11997.3 0.1 0.3
2018-Apr-18 02:00N 49°00' W 066°54'0 0.0 050 / 13999.0 0.4 0.6
2018-Apr-18 01:00N 49°00' W 066°54'0 0.0 060 / 16999.4 0.2 0.4
2018-Apr-18 00:00N 49°00' W 066°54'0 0.0 050 / 141000.3 0.5 0.6
2018-Apr-17 23:00N 49°00' W 066°54'0 0.0 050 / 121001.0 0.5 0.7
2018-Apr-17 22:00N 49°00' W 066°54'0 0.0 060 / 131001.4 0.9 1.0
2018-Apr-17 21:00N 49°00' W 066°54'0 0.0 050 / 131002.0 1.2 1.3
2018-Apr-17 20:00N 49°00' W 066°54'0 0.0 070 / 71002.8 2.9 2.9
2018-Apr-17 19:00N 49°00' W 066°54'0 0.0 060 / 161003.5 2.0 2.0
2018-Apr-17 18:00N 49°00' W 066°54'0 0.0 070 / 121004.7 3.4 3.3
2018-Apr-17 17:00N 49°00' W 066°54'0 0.0 040 / 201005.5 1.6 1.6
2018-Apr-17 16:00N 49°00' W 066°54'0 0.0 060 / 161007.3 1.0 0.9
2018-Apr-17 15:00N 49°00' W 066°54'0 0.0 070 / 181008.6 2.6 2.5
2018-Apr-17 14:00N 49°00' W 066°54'0 0.0 090 / 161010.1 2.7 2.7
2018-Apr-17 13:00N 49°00' W 066°54'0 0.0 060 / 111011.1 2.2 2.3
2018-Apr-17 12:00N 49°00' W 066°54'0 0.0 060 / 51012.1 2.1 2.2
2018-Apr-17 11:00N 49°00' W 066°54'0 0.0 050 / 21013.2 1.7 1.9
2018-Apr-17 10:00N 49°00' W 066°54'0 0.0 060 / 31014.4 1.5 1.7
2018-Apr-17 09:00N 49°00' W 066°54'0 0.0 050 / 21016.2 1.0 1.2
2018-Apr-17 08:00N 49°00' W 066°54'0 0.0 070 / 51016.8 0.9 1.1
2018-Apr-17 07:00N 49°00' W 066°54'0 0.0 060 / 91017.8 0.8 1.0
2018-Apr-17 06:00N 49°00' W 066°54'0 0.0 080 / 101020.2 1.0 1.2
2018-Apr-17 05:00N 49°00' W 066°54'0 0.0 070 / 121021.7 0.8 0.9
2018-Apr-17 04:00N 49°00' W 066°54'0 0.0 070 / 101022.9 0.4 0.5
2018-Apr-17 03:00N 49°00' W 066°54'0 0.0 060 / 161023.7 0.5 0.6
2018-Apr-17 02:00N 49°00' W 066°54'0 0.0 060 / 141025.3 0.6 0.7
2018-Apr-17 01:00N 49°00' W 066°54'0 0.0 060 / 111026.4 0.3 0.4
2018-Apr-17 00:00N 49°00' W 066°54'0 0.0 060 / 91027.5 0.4 0.4
2018-Apr-16 23:00N 49°00' W 066°54'0 0.0 080 / 101028.5 1.3 1.2
2018-Apr-16 22:00N 49°00' W 066°54'0 0.0 060 / 71028.5 1.0 0.7
2018-Apr-16 21:00N 49°00' W 066°54'0 0.0 060 / 161028.8 0.3 0.1
2018-Apr-16 20:00N 49°00' W 066°54'0 0.0 050 / 161029.8 -0.0-0.2
2018-Apr-16 19:00N 49°00' W 066°54'0 0.0 050 / 171030.8 -0.2-0.4
2018-Apr-16 18:00N 49°00' W 066°54'0 0.0 060 / 181032.0 -0.2-0.4
2018-Apr-16 17:00N 49°00' W 066°54'0 0.0 050 / 181033.0 -0.2-0.4
2018-Apr-16 16:00N 49°00' W 066°54'0 0.0 050 / 161034.5 -0.2-0.4
2018-Apr-16 15:00N 49°00' W 066°54'0 0.0 040 / 131035.9 -1.0-1.2
2018-Apr-16 14:00N 49°00' W 066°54'0 0.0 040 / 131036.7 -1.4-1.9
2018-Apr-16 13:00N 49°00' W 066°54'0 0.0 040 / 121037.2 -1.3-3.3
2018-Apr-16 12:00N 49°00' W 066°54'0 0.0 090 / 31037.6 -2.1-6.0
2018-Apr-16 11:00N 49°00' W 066°54'0 0.0 140 / 51038.0 -5.0-8.0
2018-Apr-16 10:00N 49°00' W 066°54'0 0.0 150 / 61038.3 -7.0-9.6
2018-Apr-16 09:00N 49°00' W 066°54'0 0.0 150 / 51038.9 -7.1-9.5
2018-Apr-16 08:00N 49°00' W 066°54'0 0.0 150 / 51039.3 -7.3-9.3
2018-Apr-16 07:00N 49°00' W 066°54'0 0.0 150 / 41039.4 -6.6-9.1
2018-Apr-16 06:00N 49°00' W 066°54'0 0.0 150 / 41039.9 -6.8-9.4
2018-Apr-16 05:00N 49°00' W 066°54'0 0.0 150 / 41039.9 -6.4-9.3
2018-Apr-16 04:00N 49°00' W 066°54'0 0.0 150 / 41040.1 -6.2-9.1
2018-Apr-16 03:00N 49°00' W 066°54'0 0.0 150 / 31040.3 -5.7-8.7
2018-Apr-16 02:00N 49°00' W 066°54'0 0.0 140 / 21040.4 -5.2-7.8
2018-Apr-16 01:00N 49°00' W 066°54'0 0.0 150 / 31040.6 -4.5-7.4
2018-Apr-16 00:00N 49°00' W 066°54'0 0.0 180 / 21040.5 -2.3-6.5
2018-Apr-15 23:00N 49°00' W 066°54'0 0.0 270 / 61039.9 -2.6-7.0
2018-Apr-15 22:00N 49°00' W 066°54'0 0.0 270 / 51039.7 -2.3-6.9
2018-Apr-15 21:00N 49°00' W 066°54'0 0.0 280 / 31039.1 -2.6-7.5
2018-Apr-15 20:00N 49°00' W 066°54'0 0.0 270 / 51039.5 -3.7-9.2
2018-Apr-15 19:00N 49°00' W 066°54'0 0.0 270 / 81039.6 -5.2-9.7
2018-Apr-15 18:00N 49°00' W 066°54'0 0.0 270 / 71039.9 -6.4-11.0
2018-Apr-15 17:00N 49°00' W 066°54'0 0.0 260 / 71040.0 -7.4-11.9
2018-Apr-15 16:00N 49°00' W 066°54'0 0.0 270 / 41039.9 -7.8-12.6
2018-Apr-15 15:00N 49°00' W 066°54'0 0.0 280 / 31040.3 -8.2-12.6
2018-Apr-15 14:00N 49°00' W 066°54'0 0.0 300 / 61039.9 -8.9-13.3
2018-Apr-15 13:00N 49°00' W 066°54'0 0.0 300 / 41040.1 -8.7-12.8
2018-Apr-15 12:00N 49°00' W 066°54'0 0.0 290 / 41039.8 -9.0-13.7
2018-Apr-15 11:00N 49°00' W 066°54'0 0.0 290 / 41038.4 -9.2-14.2
2018-Apr-15 10:00N 49°00' W 066°54'0 0.0 320 / 131037.6 -9.9-15.3
2018-Apr-15 09:00N 49°00' W 066°54'0 0.0 330 / 121037.4 -9.4-14.7
2018-Apr-15 08:00N 49°00' W 066°54'0 0.0 330 / 141036.4 -9.2-14.7
2018-Apr-15 07:00N 49°00' W 066°54'0 0.0 320 / 151035.6 -9.0-14.6
2018-Apr-15 06:00N 49°00' W 066°54'0 0.0 330 / 171034.7 -8.4-14.2
2018-Apr-15 05:00N 49°00' W 066°54'0 0.0 330 / 191033.8 -7.9-14.2
2018-Apr-15 04:00N 49°00' W 066°54'0 0.0 320 / 201032.8 -7.1-14.3
2018-Apr-15 03:00N 49°00' W 066°54'0 0.0 310 / 181031.5 -6.3-13.6
2018-Apr-15 02:00N 49°00' W 066°54'   310 / 201030.3 -5.0-12.2

Dump ship's entire track history